NCAR-RAP Real-Time Weather Data

Output produced by METARs form (17 December 2018  07:57 UTC)
found at http://weather.rap.ucar.edu/surface/
 
RJCM 170700Z 12001KT 9999 -SHSNRA FEW005 SCT010 BKN015 01/M01 Q1003
RJCM 170600Z 09001KT 9999 -SHRA FEW008 SCT010 BKN015 02/M01 Q1003
RJCM 170500Z 04003KT 9999 FEW008 SCT015 BKN020 02/M01 Q1003
RJCM 170400Z 06002KT 9999 -SHRA FEW008 SCT015 BKN020 02/M01 Q1003
RJCM 170300Z 02003KT 9999 FEW007 SCT010 BKN015 02/M01 Q1004
RJCM 170200Z VRB01KT 9999 -SHRASN FEW007 SCT010 BKN015 02/M01 Q1004
RJCM 170100Z VRB02KT 9999 -SHSN FEW007 SCT008 BKN010 01/M01 Q1005
RJCM 170000Z VRB02KT 9999 FEW007 SCT008 BKN010 01/M01 Q1005
RJCM 162300Z 01003KT 9999 FEW008 SCT010 BKN015 01/M01 Q1004
RJCM 162245Z 34004KT 9999 FEW008 SCT010 BKN015 01/M01 Q1004 RMK 1ST008 3ST010 6ST015 A2966
RJCM 161100Z 24003KT 210V280 9999 FEW060 SCT120 BKN140 02/M05 Q1011
RJCM 161000Z 20008KT 9999 FEW060 SCT130 BKN140 02/M05 Q1012
RJCM 160900Z 19007KT 9999 FEW060 SCT130 BKN140 01/M05 Q1012
RJCM 160800Z 19008KT 9999 FEW060 SCT170 BKN/// 02/M05 Q1013
RJCM 160700Z 20011KT 9999 FEW060 BKN/// 03/M05 Q1013
RJCM 160600Z 21008KT 9999 FEW040 BKN/// 03/M05 Q1014
RJCM 160500Z 21009KT 9999 FEW040 BKN/// 03/M05 Q1014
RJCM 160400Z 21008KT 9999 FEW030 03/M05 Q1014
RJCM 160300Z 23004KT 9999 FEW030 SCT/// 01/M06 Q1015
RJCM 160200Z 16004KT 9999 FEW030 SCT/// M03/M08 Q1016
RJCM 160100Z 21007KT 9999 FEW015 SCT070 BKN160 M05/M09 Q1017
RJCM 160000Z 19008KT 9999 FEW015 SCT130 BKN150 M06/M10 Q1018
RJCM 151100Z 18007KT 9999 FEW030 M12/M14 Q1021
RJCM 151000Z 18003KT 160V220 9999 FEW030 BKN050 M09/M12 Q1021
RJCM 150900Z 16003KT 9999 FEW030 SCT050 M10/M13 Q1021
RJCM 150800Z VRB02KT 9999 FEW030 BKN050 M06/M09 Q1020
RJCM 150700Z 15003KT 9999 FEW030 M08/M12 Q1020
RJCM 150600Z 13003KT 9999 FEW030 M03/M09 Q1020
RJCM 150500Z 12003KT 9999 FEW030 SCT040 BKN050 M02/M09 Q1020
RJCM 150400Z 14003KT 9999 FEW030 SCT040 BKN050 M03/M09 Q1020
RJCM 150300Z 16004KT 9999 FEW020 M04/M09 Q1020
RJCM 150200Z 16004KT 9999 FEW020 M06/M10 Q1021
RJCM 150100Z 21004KT 9999 FEW020 M06/M10 Q1021
RJCM 150000Z 22006KT 9999 FEW020 M07/M11 Q1021
RJCM 142300Z 20007KT 9999 FEW020 BKN040 M08/M11 Q1021
RJCM 142245Z 18005KT 9999 FEW020 BKN040 M09/M12 Q1021 RMK 1CU020 5CU040 A3017